Time,TemperatureF,DewpointF,PressureIn,WindDirection,WindDirectionDegrees,WindSpeedMPH,WindSpeedGustMPH,Humidity,HourlyPrecipIn,Conditions,Clouds,dailyrainin,SolarRadiationWatts/m^2,SoftwareType,DateUTC
2013-02-12 00:03:00,39.3,34.0,30.26,SSW,210,0.0,3.0,80,0.00,,,0.00,0,weatherlink.com 1.10,2013-02-12 08:03:00,
2013-02-12 00:18:00,39.3,34.0,30.26,SSW,210,1.0,1.0,80,0.00,,,0.00,0,weatherlink.com 1.10,2013-02-12 08:18:00,
2013-02-12 00:33:00,39.2,34.0,30.27,SSW,210,0.0,1.0,81,0.00,,,0.00,0,weatherlink.com 1.10,2013-02-12 08:33:00,
2013-02-12 00:48:00,38.2,33.0,30.27,SSW,210,3.0,3.0,80,0.00,,,0.00,0,weatherlink.com 1.10,2013-02-12 08:48:00,
2013-02-12 01:03:00,38.9,34.0,30.27,SSW,208,2.0,4.0,82,0.00,,,0.00,0,weatherlink.com 1.10,2013-02-12 09:03:00,
2013-02-12 01:18:00,38.8,33.0,30.27,South,180,3.0,6.0,81,0.00,,,0.00,0,weatherlink.com 1.10,2013-02-12 09:18:00,
2013-02-12 01:33:00,38.2,33.0,30.27,South,180,1.0,3.0,81,0.00,,,0.00,0,weatherlink.com 1.10,2013-02-12 09:33:00,
2013-02-12 01:48:00,38.2,33.0,30.28,South,180,1.0,2.0,82,0.00,,,0.00,0,weatherlink.com 1.10,2013-02-12 09:48:00,
2013-02-12 02:03:00,37.9,33.0,30.28,South,180,1.0,1.0,81,0.00,,,0.00,0,weatherlink.com 1.10,2013-02-12 10:03:00,
2013-02-12 02:18:00,37.5,33.0,30.28,South,180,2.0,2.0,83,0.00,,,0.00,0,weatherlink.com 1.10,2013-02-12 10:18:00,
2013-02-12 02:33:00,37.4,33.0,30.29,South,180,1.0,3.0,83,0.00,,,0.00,0,weatherlink.com 1.10,2013-02-12 10:33:00,
2013-02-12 02:48:00,37.0,32.0,30.28,South,180,1.0,2.0,82,0.00,,,0.00,0,weatherlink.com 1.10,2013-02-12 10:48:00,
2013-02-12 03:03:00,36.7,32.0,30.29,South,180,1.0,1.0,83,0.00,,,0.00,0,weatherlink.com 1.10,2013-02-12 11:03:00,
2013-02-12 03:18:00,36.4,32.0,30.29,South,180,0.0,2.0,83,0.00,,,0.00,0,weatherlink.com 1.10,2013-02-12 11:18:00,
2013-02-12 03:33:00,36.8,32.0,30.29,South,180,0.0,1.0,84,0.00,,,0.00,0,weatherlink.com 1.10,2013-02-12 11:33:00,
2013-02-12 03:48:00,36.1,32.0,30.29,South,180,0.0,3.0,84,0.00,,,0.00,0,weatherlink.com 1.10,2013-02-12 11:48:00,
2013-02-12 04:03:00,36.3,32.0,30.29,South,180,0.0,2.0,85,0.00,,,0.00,0,weatherlink.com 1.10,2013-02-12 12:03:00,
2013-02-12 04:18:00,35.9,32.0,30.29,South,180,0.0,2.0,86,0.00,,,0.00,0,weatherlink.com 1.10,2013-02-12 12:18:00,
2013-02-12 04:33:00,35.7,32.0,30.30,South,180,0.0,1.0,85,0.00,,,0.00,0,weatherlink.com 1.10,2013-02-12 12:33:00,
2013-02-12 04:48:00,35.7,32.0,30.29,South,180,0.0,0.0,86,0.00,,,0.00,0,weatherlink.com 1.10,2013-02-12 12:48:00,
2013-02-12 05:03:00,34.9,31.0,30.29,South,180,0.0,0.0,85,0.00,,,0.00,0,weatherlink.com 1.10,2013-02-12 13:03:00,
2013-02-12 05:18:00,34.1,31.0,30.29,South,180,0.0,1.0,87,0.00,,,0.00,0,weatherlink.com 1.10,2013-02-12 13:18:00,
2013-02-12 05:33:00,34.5,31.0,30.29,South,180,0.0,2.0,87,0.00,,,0.00,0,weatherlink.com 1.10,2013-02-12 13:33:00,
2013-02-12 05:48:00,34.5,31.0,30.29,South,180,0.0,1.0,86,0.00,,,0.00,0,weatherlink.com 1.10,2013-02-12 13:48:00,
2013-02-12 06:03:00,34.9,31.0,30.30,South,180,0.0,0.0,86,0.00,,,0.00,0,weatherlink.com 1.10,2013-02-12 14:03:00,
2013-02-12 06:18:00,34.7,31.0,30.31,South,180,0.0,1.0,87,0.00,,,0.00,0,weatherlink.com 1.10,2013-02-12 14:18:00,
2013-02-12 06:33:00,35.2,32.0,30.31,South,180,0.0,1.0,87,0.00,,,0.00,0,weatherlink.com 1.10,2013-02-12 14:33:00,
2013-02-12 06:48:00,35.7,32.0,30.32,South,180,0.0,0.0,86,0.00,,,0.00,0,weatherlink.com 1.10,2013-02-12 14:48:00,
2013-02-12 07:03:00,35.2,31.0,30.32,South,180,0.0,4.0,86,0.00,,,0.00,7,weatherlink.com 1.10,2013-02-12 15:03:00,
2013-02-12 07:18:00,35.3,31.0,30.33,South,180,0.0,0.0,85,0.00,,,0.00,19,weatherlink.com 1.10,2013-02-12 15:18:00,
2013-02-12 07:34:00,36.6,32.0,30.34,South,180,0.0,0.0,83,0.00,,,0.00,76,weatherlink.com 1.10,2013-02-12 15:34:00,
2013-02-12 07:49:00,37.4,32.0,30.34,South,180,0.0,1.0,82,0.00,,,0.00,139,weatherlink.com 1.10,2013-02-12 15:49:00,
2013-02-12 08:04:00,38.5,33.0,30.35,South,180,0.0,2.0,81,0.00,,,0.00,181,weatherlink.com 1.10,2013-02-12 16:04:00,
2013-02-12 08:19:00,39.7,33.0,30.35,South,180,0.0,3.0,78,0.00,,,0.00,239,weatherlink.com 1.10,2013-02-12 16:19:00,
2013-02-12 08:34:00,41.0,34.0,30.36,South,180,0.0,3.0,75,0.00,,,0.00,304,weatherlink.com 1.10,2013-02-12 16:34:00,
2013-02-12 08:49:00,43.0,35.0,30.36,South,178,0.0,2.0,74,0.00,,,0.00,346,weatherlink.com 1.10,2013-02-12 16:49:00,
2013-02-12 09:04:00,45.1,37.0,30.36,NNE,19,1.0,5.0,72,0.00,,,0.00,364,weatherlink.com 1.10,2013-02-12 17:04:00,
2013-02-12 09:19:00,46.7,38.0,30.36,NNE,20,3.0,5.0,71,0.00,,,0.00,417,weatherlink.com 1.10,2013-02-12 17:19:00,
2013-02-12 09:34:00,47.9,39.0,30.37,North,350,5.0,8.0,72,0.00,,,0.00,468,weatherlink.com 1.10,2013-02-12 17:34:00,
2013-02-12 09:49:00,48.3,39.0,30.37,North,350,4.0,10.0,69,0.00,,,0.00,517,weatherlink.com 1.10,2013-02-12 17:49:00,
2013-02-12 10:04:00,49.5,39.0,30.37,NNE,27,5.0,8.0,68,0.00,,,0.00,543,weatherlink.com 1.10,2013-02-12 18:04:00,
2013-02-12 10:19:00,50.2,40.0,30.36,NNW,329,6.0,9.0,69,0.00,,,0.00,577,weatherlink.com 1.10,2013-02-12 18:19:00,
2013-02-12 10:34:00,50.9,41.0,30.37,NNW,343,7.0,10.0,69,0.00,,,0.00,599,weatherlink.com 1.10,2013-02-12 18:34:00,
2013-02-12 10:49:00,52.9,41.0,30.37,NE,35,5.0,9.0,64,0.00,,,0.00,619,weatherlink.com 1.10,2013-02-12 18:49:00,
2013-02-12 11:04:00,53.5,39.0,30.37,North,5,6.0,10.0,58,0.00,,,0.00,636,weatherlink.com 1.10,2013-02-12 19:04:00,
2013-02-12 11:20:00,54.1,38.0,30.37,North,355,5.0,10.0,55,0.00,,,0.00,647,weatherlink.com 1.10,2013-02-12 19:20:00,
2013-02-12 11:35:00,54.5,38.0,30.37,North,5,6.0,9.0,54,0.00,,,0.00,656,weatherlink.com 1.10,2013-02-12 19:35:00,
2013-02-12 11:50:00,56.0,39.0,30.37,NNW,344,4.0,8.0,54,0.00,,,0.00,652,weatherlink.com 1.10,2013-02-12 19:50:00,
2013-02-12 12:05:00,55.6,38.0,30.36,NNE,22,5.0,9.0,52,0.00,,,0.00,663,weatherlink.com 1.10,2013-02-12 20:05:00,
2013-02-12 12:20:00,56.2,39.0,30.36,North,360,5.0,9.0,52,0.00,,,0.00,659,weatherlink.com 1.10,2013-02-12 20:20:00,
2013-02-12 12:35:00,56.9,39.0,30.35,North,355,6.0,9.0,51,0.00,,,0.00,570,weatherlink.com 1.10,2013-02-12 20:35:00,
2013-02-12 12:50:00,57.6,39.0,30.34,NNW,332,6.0,9.0,51,0.00,,,0.00,626,weatherlink.com 1.10,2013-02-12 20:50:00,
2013-02-12 13:05:00,58.2,38.0,30.34,NNW,328,4.0,9.0,48,0.00,,,0.00,633,weatherlink.com 1.10,2013-02-12 21:05:00,
2013-02-12 13:20:00,59.2,39.0,30.34,NNW,330,2.0,7.0,48,0.00,,,0.00,585,weatherlink.com 1.10,2013-02-12 21:20:00,
2013-02-12 13:35:00,59.3,38.0,30.33,North,360,1.0,8.0,46,0.00,,,0.00,554,weatherlink.com 1.10,2013-02-12 21:35:00,
2013-02-12 13:50:00,59.7,39.0,30.33,North,5,4.0,8.0,47,0.00,,,0.00,552,weatherlink.com 1.10,2013-02-12 21:50:00,
2013-02-12 14:05:00,60.7,39.0,30.32,NNE,30,2.0,6.0,45,0.00,,,0.00,513,weatherlink.com 1.10,2013-02-12 22:05:00,
2013-02-12 14:20:00,61.5,39.0,30.32,North,355,4.0,6.0,44,0.00,,,0.00,485,weatherlink.com 1.10,2013-02-12 22:20:00,
2013-02-12 14:35:00,61.6,39.0,30.32,NNW,336,6.0,9.0,43,0.00,,,0.00,457,weatherlink.com 1.10,2013-02-12 22:35:00,
2013-02-12 14:50:00,61.5,39.0,30.32,NW,306,2.0,9.0,44,0.00,,,0.00,420,weatherlink.com 1.10,2013-02-12 22:50:00,
2013-02-12 15:05:00,61.3,39.0,30.32,NNW,333,1.0,9.0,44,0.00,,,0.00,383,weatherlink.com 1.10,2013-02-12 23:05:00,
2013-02-12 15:20:00,61.8,39.0,30.31,NNW,338,6.0,8.0,44,0.00,,,0.00,341,weatherlink.com 1.10,2013-02-12 23:20:00,
2013-02-12 15:35:00,61.2,38.0,30.31,North,350,2.0,9.0,43,0.00,,,0.00,290,weatherlink.com 1.10,2013-02-12 23:35:00,
2013-02-12 15:50:00,61.1,38.0,30.31,NNW,342,3.0,8.0,43,0.00,,,0.00,246,weatherlink.com 1.10,2013-02-12 23:50:00,
2013-02-12 16:05:00,60.7,38.0,30.31,NNW,334,3.0,9.0,43,0.00,,,0.00,172,weatherlink.com 1.10,2013-02-13 00:05:00,
2013-02-12 16:20:00,60.4,38.0,30.31,NW,306,4.0,9.0,44,0.00,,,0.00,125,weatherlink.com 1.10,2013-02-13 00:20:00,
2013-02-12 16:35:00,59.8,37.0,30.30,NNW,330,3.0,7.0,43,0.00,,,0.00,76,weatherlink.com 1.10,2013-02-13 00:35:00,
2013-02-12 16:50:00,59.3,37.0,30.30,NNW,341,4.0,6.0,43,0.00,,,0.00,44,weatherlink.com 1.10,2013-02-13 00:50:00,
2013-02-12 17:05:00,58.7,37.0,30.30,NNW,333,2.0,5.0,44,0.00,,,0.00,30,weatherlink.com 1.10,2013-02-13 01:05:00,
2013-02-12 17:20:00,58.0,37.0,30.31,NNW,344,3.0,5.0,45,0.00,,,0.00,21,weatherlink.com 1.10,2013-02-13 01:20:00,
2013-02-12 17:35:00,56.8,37.0,30.32,NNW,344,1.0,3.0,47,0.00,,,0.00,11,weatherlink.com 1.10,2013-02-13 01:35:00,
2013-02-12 17:50:00,55.9,37.0,30.32,NNW,344,0.0,2.0,50,0.00,,,0.00,0,weatherlink.com 1.10,2013-02-13 01:50:00,
2013-02-12 18:05:00,54.8,38.0,30.31,NNW,344,0.0,1.0,54,0.00,,,0.00,0,weatherlink.com 1.10,2013-02-13 02:05:00,
2013-02-12 18:20:00,54.1,39.0,30.31,NNW,344,0.0,1.0,56,0.00,,,0.00,0,weatherlink.com 1.10,2013-02-13 02:20:00,
2013-02-12 18:35:00,53.0,39.0,30.31,NNW,344,0.0,1.0,59,0.00,,,0.00,0,weatherlink.com 1.10,2013-02-13 02:35:00,
2013-02-12 18:50:00,52.0,39.0,30.32,NNW,344,0.0,1.0,61,0.00,,,0.00,0,weatherlink.com 1.10,2013-02-13 02:50:00,
2013-02-12 19:05:00,50.3,39.0,30.32,NNW,344,0.0,1.0,65,0.00,,,0.00,0,weatherlink.com 1.10,2013-02-13 03:05:00,
2013-02-12 19:20:00,50.0,39.0,30.32,NNW,344,0.0,0.0,66,0.00,,,0.00,0,weatherlink.com 1.10,2013-02-13 03:20:00,
2013-02-12 19:35:00,48.4,38.0,30.32,NNW,344,0.0,0.0,68,0.00,,,0.00,0,weatherlink.com 1.10,2013-02-13 03:35:00,
2013-02-12 19:50:00,47.2,38.0,30.32,NNW,344,0.0,1.0,71,0.00,,,0.00,0,weatherlink.com 1.10,2013-02-13 03:50:00,
2013-02-12 20:05:00,47.3,38.0,30.33,NNW,344,0.0,0.0,71,0.00,,,0.00,0,weatherlink.com 1.10,2013-02-13 04:05:00,
2013-02-12 20:20:00,46.3,38.0,30.33,NNW,344,0.0,0.0,73,0.00,,,0.00,0,weatherlink.com 1.10,2013-02-13 04:20:00,
2013-02-12 20:35:00,45.7,37.0,30.33,NNW,344,0.0,0.0,73,0.00,,,0.00,0,weatherlink.com 1.10,2013-02-13 04:35:00,
2013-02-12 20:50:00,45.3,37.0,30.33,NNW,344,0.0,1.0,73,0.00,,,0.00,0,weatherlink.com 1.10,2013-02-13 04:50:00,
2013-02-12 21:05:00,45.1,38.0,30.34,NNW,344,0.0,0.0,75,0.00,,,0.00,0,weatherlink.com 1.10,2013-02-13 05:05:00,
2013-02-12 21:20:00,44.1,37.0,30.34,NNW,344,0.0,0.0,77,0.00,,,0.00,0,weatherlink.com 1.10,2013-02-13 05:20:00,
2013-02-12 21:35:00,44.2,37.0,30.34,NNW,344,0.0,0.0,77,0.00,,,0.00,0,weatherlink.com 1.10,2013-02-13 05:35:00,
2013-02-12 21:50:00,43.9,37.0,30.34,NNW,344,0.0,0.0,78,0.00,,,0.00,0,weatherlink.com 1.10,2013-02-13 05:50:00,
2013-02-12 22:05:00,43.4,37.0,30.34,NNW,344,0.0,0.0,79,0.00,,,0.00,0,weatherlink.com 1.10,2013-02-13 06:05:00,
2013-02-12 22:20:00,42.4,37.0,30.35,NNW,344,0.0,0.0,80,0.00,,,0.00,0,weatherlink.com 1.10,2013-02-13 06:20:00,
2013-02-12 22:35:00,42.1,36.0,30.35,NNW,344,0.0,0.0,80,0.00,,,0.00,0,weatherlink.com 1.10,2013-02-13 06:35:00,
2013-02-12 22:50:00,42.0,36.0,30.35,NNW,344,0.0,0.0,80,0.00,,,0.00,0,weatherlink.com 1.10,2013-02-13 06:50:00,
2013-02-12 23:05:00,41.7,36.0,30.35,NNW,344,0.0,0.0,80,0.00,,,0.00,0,weatherlink.com 1.10,2013-02-13 07:05:00,
2013-02-12 23:20:00,41.6,36.0,30.36,NNW,344,0.0,0.0,81,0.00,,,0.00,0,weatherlink.com 1.10,2013-02-13 07:20:00,
2013-02-12 23:35:00,41.5,36.0,30.35,NNW,344,0.0,0.0,81,0.00,,,0.00,0,weatherlink.com 1.10,2013-02-13 07:35:00,
2013-02-12 23:50:00,41.0,36.0,30.36,NNW,344,0.0,0.0,81,0.00,,,0.00,0,weatherlink.com 1.10,2013-02-13 07:50:00,